Time;durP1;ratioP1;P1;durP2;ratioP2;P2;SDS_P1;SDS_P2;PMS_P1;PMS_P2;Temp;Humidity;BMP_temperature;BMP_pressure;BME280_temperature;BME280_humidity;BME280_pressure;Samples;Min_cycle;Max_cycle;Signal;HPM_P1;HPM_P2
2022/01/22 00:02:09;;;;;;;;;;;;;;;;;;5051371;28;20011;-61
2022/01/22 00:04:35;;;;;;;;;;;;;;;;;;5056117;28;19913;-60
2022/01/22 00:07:02;;;;;;;;;;;;;;;;;;5071380;28;19958;-62
2022/01/22 00:09:35;;;;;;;;;;;;;;;;;;5071356;28;19917;-59
2022/01/22 00:12:01;;;;;;;;;;;;;;;;;;5073810;28;19912;-63
2022/01/22 00:14:27;;;;;;;;;;;;;;;;;;5071359;28;19916;-62
2022/01/22 00:16:53;;;;;;;;;;;;;;;;;;5041178;28;19931;-63
2022/01/22 00:19:19;;;;;;;;;;;;;;;;;;5051487;28;20400;-61
2022/01/22 00:21:45;;;;;;;;;;;;;;;;;;5051195;28;19999;-57
2022/01/22 00:24:11;;;;;;;;;;;;;;;;;;5050890;28;19951;-61
2022/01/22 00:26:37;;;;;;;;;;;;;;;;;;5067920;28;19913;-56
2022/01/22 00:29:03;;;;;;;;;;;;;;;;;;5053270;28;19966;-58
2022/01/22 00:31:29;;;;;;;;;;;;;;;;;;5070777;28;19912;-62
2022/01/22 00:33:55;;;;;;;;;;;;;;;;;;5070692;28;19948;-59
2022/01/22 00:36:21;;;;;;;;;;;;;;;;;;5071076;28;19920;-59
2022/01/22 00:38:46;;;;;;;;;;;;;;;;;;5071106;28;19988;-63
2022/01/22 00:41:12;;;;;;;;;;;;;;;;;;5070819;28;19999;-55
2022/01/22 00:43:38;;;;;;;;;;;;;;;;;;5071070;28;19909;-61
2022/01/22 00:46:04;;;;;;;;;;;;;;;;;;5052371;28;19908;-62
2022/01/22 00:48:30;;;;;;;;;;;;;;;;;;5071227;28;19919;-60
2022/01/22 00:50:57;;;;;;;;;;;;;;;;;;5058526;28;20015;-57
2022/01/22 00:53:23;;;;;;;;;;;;;;;;;;5050550;28;19913;-59
2022/01/22 00:55:48;;;;;;;;;;;;;;;;;;5083745;22;19978;-60
2022/01/22 00:58:14;;;;;;;;;;;;;;;;;;5070137;28;20275;-61
2022/01/22 01:00:40;;;;;;;;;;;;;;;;;;5070439;28;20135;-61
2022/01/22 01:03:06;;;;;;;;;;;;;;;;;;5070371;28;20424;-60
2022/01/22 01:05:32;;;;;;;;;;;;;;;;;;5070198;28;19920;-60
2022/01/22 01:07:58;;;;;;;;;;;;;;;;;;5071660;28;19923;-59
2022/01/22 01:10:24;;;;;;;;;;;;;;;;;;5071893;28;19909;-58
2022/01/22 01:12:51;;;;;;;;;;;;;;;;;;5071956;28;19908;-62
2022/01/22 01:34:31;;;;;;;;;;;;;;;;;;5071371;28;19966;-56
2022/01/22 01:36:57;;;;;;;;;;;;;;;;;;5070709;28;19908;-60
2022/01/22 01:39:28;;;;;;;;;;;;;;;;;;5071456;28;19952;-60
2022/01/22 01:42:04;;;;;;;;;;;;;;;;;;5073942;28;19908;-59
2022/01/22 01:44:30;;;;;;;;;;;;;;;;;;5071974;28;19916;-59
2022/01/22 01:46:57;;;;;;;;;;;;;;;;;;5071341;28;19909;-57
2022/01/22 01:49:23;;;;;;;;;;;;;;;;;;5071489;28;19917;-61
2022/01/22 01:51:49;;;;;;;;;;;;;;;;;;5071613;28;19917;-58
2022/01/22 01:59:44;;;;;;;;;;;;;;;;;;5071510;28;19970;-58
2022/01/22 02:02:10;;;;;;;;;;;;;;;;;;5071267;28;19913;-58
2022/01/22 02:04:36;;;;;;;;;;;;;;;;;;5070916;28;20376;-61
2022/01/22 02:07:02;;;;;;;;;;;;;;;;;;5071419;28;19940;-62
2022/01/22 02:09:28;;;;;;;;;;;;;;;;;;5071353;28;19920;-61
2022/01/22 02:12:10;;;;;;;;;;;;;;;;;;5071500;28;19927;-60
2022/01/22 02:25:18;;;;;;;;;;;;;;;;;;5071484;28;19931;-60
2022/01/22 02:27:44;;;;;;;;;;;;;;;;;;5071055;28;20356;-58
2022/01/22 02:30:17;;;;;;;;;;;;;;;;;;5070590;28;19908;-59
2022/01/22 02:33:05;;;;;;;;;;;;;;;;;;5073179;28;19909;-60
2022/01/22 02:35:38;;;;;;;;;;;;;;;;;;5079641;28;19966;-60
2022/01/22 02:38:11;;;;;;;;;;;;;;;;;;5078808;28;20340;-59
2022/01/22 02:40:45;;;;;;;;;;;;;;;;;;5075543;28;20402;-62
2022/01/22 02:43:11;;;;;;;;;;;;;;;;;;5075447;28;20247;-60
2022/01/22 02:45:37;;;;;;;;;;;;;;;;;;5074907;28;19912;-61
2022/01/22 02:48:03;;;;;;;;;;;;;;;;;;5075422;28;19941;-58
2022/01/22 02:50:29;;;;;;;;;;;;;;;;;;5074994;28;19916;-60
2022/01/22 02:52:55;;;;;;;;;;;;;;;;;;5075533;28;19908;-60
2022/01/22 02:55:21;;;;;;;;;;;;;;;;;;5074904;28;20050;-61
2022/01/22 02:57:47;;;;;;;;;;;;;;;;;;5073871;28;19909;-60
2022/01/22 03:00:12;;;;;;;;;;;;;;;;;;5075274;28;19908;-62
2022/01/22 03:02:38;;;;;;;;;;;;;;;;;;5075102;28;19943;-57
2022/01/22 03:05:04;;;;;;;;;;;;;;;;;;5074855;28;19909;-62
2022/01/22 03:07:30;;;;;;;;;;;;;;;;;;5075172;28;20371;-61
2022/01/22 03:10:01;;;;;;;;;;;;;;;;;;5075211;28;19935;-64
2022/01/22 03:22:28;;;;;;;;;;;;;;;;;;5074436;28;19909;-60
2022/01/22 03:27:38;;;;;;;;;;;;;;;;;;5077989;28;19920;-60
2022/01/22 03:30:04;;;;;;;;;;;;;;;;;;5072939;28;19909;-59
2022/01/22 03:32:37;;;;;;;;;;;;;;;;;;5074304;28;20407;-58
2022/01/22 03:37:44;;;;;;;;;;;;;;;;;;5074263;28;19909;-59
2022/01/22 03:40:10;;;;;;;;;;;;;;;;;;5073900;28;20482;-60
2022/01/22 03:42:36;;;;;;;;;;;;;;;;;;5074073;28;19909;-63
2022/01/22 03:45:01;;;;;;;;;;;;;;;;;;5073199;28;20007;-60
2022/01/22 03:47:27;;;;;;;;;;;;;;;;;;5073867;28;19908;-60
2022/01/22 03:49:53;;;;;;;;;;;;;;;;;;5072325;28;19912;-60
2022/01/22 03:52:21;;;;;;;;;;;;;;;;;;5073163;28;21100;-59
2022/01/22 03:54:47;;;;;;;;;;;;;;;;;;5073082;28;19908;-62
2022/01/22 03:57:13;;;;;;;;;;;;;;;;;;5073448;28;19913;-62
2022/01/22 03:59:38;;;;;;;;;;;;;;;;;;5073553;28;20291;-61
2022/01/22 04:04:50;;;;;;;;;;;;;;;;;;5073246;28;19908;-59
2022/01/22 04:09:45;;;;;;;;;;;;;;;;;;5073427;28;19916;-58
2022/01/22 04:12:12;;;;;;;;;;;;;;;;;;5073255;28;19915;-61
2022/01/22 04:14:45;;;;;;;;;;;;;;;;;;5071474;28;19909;-60
2022/01/22 04:25:11;;;;;;;;;;;;;;;;;;5072571;28;19961;-62
2022/01/22 04:27:37;;;;;;;;;;;;;;;;;;5072817;28;19908;-59
2022/01/22 04:30:03;;;;;;;;;;;;;;;;;;5072655;28;20345;-60
2022/01/22 04:32:29;;;;;;;;;;;;;;;;;;5072850;28;20003;-60
2022/01/22 04:34:55;;;;;;;;;;;;;;;;;;5071137;28;19912;-60
2022/01/22 04:37:21;;;;;;;;;;;;;;;;;;5071427;28;19909;-60
2022/01/22 04:39:47;;;;;;;;;;;;;;;;;;5072432;28;19954;-62
2022/01/22 04:42:13;;;;;;;;;;;;;;;;;;5072838;28;20007;-60
2022/01/22 04:44:49;;;;;;;;;;;;;;;;;;5071219;28;20050;-62
2022/01/22 04:47:31;;;;;;;;;;;;;;;;;;5072622;28;19908;-60
2022/01/22 04:54:57;;;;;;;;;;;;;;;;;;5072705;28;19920;-59
2022/01/22 04:55:27;;;;;;;;;;;;;;;;;;5071221;28;19993;-58
2022/01/22 04:57:53;;;;;;;;;;;;;;;;;;5071019;28;20328;-62
2022/01/22 05:00:19;;;;;;;;;;;;;;;;;;5072218;28;19915;-64
2022/01/22 05:02:45;;;;;;;;;;;;;;;;;;5072084;28;19949;-62
2022/01/22 05:05:10;;;;;;;;;;;;;;;;;;5070935;28;19954;-60
2022/01/22 05:07:36;;;;;;;;;;;;;;;;;;5072910;28;19912;-59
2022/01/22 05:10:02;;;;;;;;;;;;;;;;;;5072880;28;19912;-60
2022/01/22 05:12:28;;;;;;;;;;;;;;;;;;5073064;28;19908;-61
2022/01/22 05:14:54;;;;;;;;;;;;;;;;;;5072937;28;19999;-63
2022/01/22 05:17:20;;;;;;;;;;;;;;;;;;5072238;28;19909;-62
2022/01/22 05:20:04;;;;;;;;;;;;;;;;;;5072326;28;19908;-62
2022/01/22 05:25:09;;;;;;;;;;;;;;;;;;5072771;28;19939;-61
2022/01/22 05:38:20;;;;;;;;;;;;;;;;;;5071768;28;20190;-61
2022/01/22 05:40:46;;;;;;;;;;;;;;;;;;5071600;28;20368;-59
2022/01/22 05:43:12;;;;;;;;;;;;;;;;;;5072588;28;19999;-58
2022/01/22 05:45:38;;;;;;;;;;;;;;;;;;5071599;28;19962;-58
2022/01/22 05:48:04;;;;;;;;;;;;;;;;;;5072092;28;19935;-61
2022/01/22 05:50:34;;;;;;;;;;;;;;;;;;5071814;28;19984;-63
2022/01/22 05:53:13;;;;;;;;;;;;;;;;;;5071556;28;19916;-60
2022/01/22 06:01:08;;;;;;;;;;;5.50;99.90;;;;;;5071318;28;20278;-62
2022/01/22 06:03:34;;;;;;;;;;;;;;;;;;5070131;28;19908;-60
2022/01/22 06:06:00;;;;;;;;;;;;;;;;;;5070805;28;19915;-61
2022/01/22 06:08:31;;;;;;;;;;;;;;;;;;5071460;28;19913;-60
2022/01/22 06:10:59;;;;;;;;;;;;;;;;;;5069914;28;19915;-60
2022/01/22 06:13:34;;;;;;;;;;;;;;;;;;5069858;28;19908;-60
2022/01/22 06:16:00;;;;;;;;;;;;;;;;;;5070920;28;19909;-59
2022/01/22 06:18:25;;;;;;;;;;;;;;;;;;5071025;28;19915;-60
2022/01/22 06:20:51;;;;;;;;;;;;;;;;;;5070781;28;19912;-62
2022/01/22 06:23:17;;;;;;;;;;;;;;;;;;5069808;28;19908;-61
2022/01/22 06:25:43;;;;;;;;;;;;;;;;;;5070507;28;19916;-57
2022/01/22 06:28:09;;;;;;;;;;;;;;;;;;5070990;28;20015;-59
2022/01/22 06:30:35;;;;;;;;;;;;;;;;;;5070933;28;19909;-62
2022/01/22 06:33:01;;;;;;;;;;;;;;;;;;5069667;28;19971;-59
2022/01/22 06:35:27;;;;;;;;;;;;;;;;;;5070751;28;20088;-60
2022/01/22 06:37:52;;;;;;;;;;;;;;;;;;5071245;28;19908;-62
2022/01/22 06:42:44;;;;;;;;;;;;;;;;;;5071024;28;19915;-63
2022/01/22 06:45:10;;;;;;;;;;;;;;;;;;5069243;28;20006;-59
2022/01/22 06:47:36;;;;;;;;;;;;;;;;;;5070756;28;20043;-62
2022/01/22 06:50:02;;;;;;;;;;;;;;;;;;5070374;28;20007;-61
2022/01/22 06:52:29;;;;;;;;;;;;;;;;;;5070836;28;19912;-62
2022/01/22 06:57:39;;;;;;;;;;;;;;;;;;5030457;28;19933;-57
2022/01/22 07:00:05;;;;;;;;;;;;;;;;;;5032028;28;19909;-54
2022/01/22 07:02:30;;;;;;;;;;;;;;;;;;5032148;28;19913;-56
2022/01/22 07:04:56;;;;;;;;;;;;;;;;;;5031960;28;20000;-56
2022/01/22 07:07:22;;;;;;;;;;;;;;;;;;5031923;28;19910;-60
2022/01/22 07:09:48;;;;;;;;;;;;;;;;;;5031898;28;19921;-58
2022/01/22 07:12:14;;;;;;;;;;;;;;;;;;5032077;28;19963;-56
2022/01/22 07:14:41;;;;;;;;;;;;;;;;;;5030659;28;20003;-59
2022/01/22 07:17:07;;;;;;;;;;;;;;;;;;5030488;28;19948;-57
2022/01/22 07:19:38;;;;;;;;;;;;;;;;;;5033793;28;19941;-57
2022/01/22 07:22:10;;;;;;;;;;;;;;;;;;5034241;28;19957;-56
2022/01/22 07:24:40;;;;;;;;;;;;;;;;;;5035300;28;19996;-54
2022/01/22 07:27:06;;;;;;;;;;;;;;;;;;5034334;28;19909;-59
2022/01/22 07:29:32;;;;;;;;;;;;;;;;;;5035263;28;19960;-55
2022/01/22 07:32:01;;;;;;;;;;;;;;;;;;5033873;28;19909;-59
2022/01/22 07:34:27;;;;;;;;;;;;;;;;;;5035270;28;19916;-53
2022/01/22 07:36:53;;;;;;;;;;;;;;;;;;5035147;28;19909;-55
2022/01/22 07:39:19;;;;;;;;;;;;;;;;;;5034014;28;19909;-58
2022/01/22 07:41:46;;;;;;;;;;;;;;;;;;5035171;28;19909;-52
2022/01/22 07:44:12;;;;;;;;;;;;;;;;;;5026730;28;19956;-58
2022/01/22 07:46:38;;;;;;;;;;;;;;;;;;5028571;28;20002;-52
2022/01/22 07:49:05;;;;;;;;;;;;;;;;;;5027077;28;19943;-58
2022/01/22 07:51:31;;;;;;;;;;;;;;;;;;5015229;28;19910;-52
2022/01/22 07:53:57;;;;;;;;;;;;;;;;;;5027013;28;20024;-56
2022/01/22 07:56:23;;;;;;;;;;;;;;;;;;5033235;28;19917;-57
2022/01/22 07:58:49;;;;;;;;;;;;;;;;;;5034612;28;20435;-59
2022/01/22 08:01:14;;;;;;;;;;;;;;;;;;5032299;28;19916;-60
2022/01/22 08:03:40;;;;;;;;;;;;;;;;;;5015082;28;20388;-55
2022/01/22 08:06:06;;;;;;;;;;;;;;;;;;5014242;28;20112;-56
2022/01/22 08:08:34;;;;;;;;;;;;;;;;;;5013683;28;19920;-56
2022/01/22 08:11:00;;;;;;;;;;;;;;;;;;5013806;28;19917;-56
2022/01/22 08:13:26;;;;;;;;;;;;;;;;;;5013469;28;19909;-56
2022/01/22 08:15:52;;;;;;;;;;;;;;;;;;5014794;28;19910;-56
2022/01/22 08:18:17;;;;;;;;;;;;;;;;;;5017011;28;19914;-59
2022/01/22 08:20:43;;;;;;;;;;;;;;;;;;5034479;28;19913;-58
2022/01/22 08:23:10;;;;;;;;;;;;;;;;;;5034248;28;19952;-53
2022/01/22 08:25:39;;;;;;;;;;;;;;;;;;5034244;28;19913;-50
2022/01/22 08:30:30;;;;;;;;;;;;;;;;;;5033354;28;19968;-60
2022/01/22 08:33:09;;;;;;;;;;;;;;;;;;5032704;28;20280;-54
2022/01/22 08:35:54;;;;;;;;;;;;;;;;;;5038971;28;19909;-57
2022/01/22 08:38:20;;;;;;;;;;;;;;;;;;5034106;28;19971;-59
2022/01/22 08:40:46;;;;;;;;;;;;;;;;;;5034028;28;19913;-56
2022/01/22 08:43:11;;;;;;;;;;;;;;;;;;5032572;28;19916;-53
2022/01/22 08:45:37;;;;;;;;;;;;;;;;;;5033338;28;19909;-58
2022/01/22 08:48:03;;;;;;;;;;;;;;;;;;5033780;28;20412;-56
2022/01/22 08:50:29;;;;;;;;;;;;;;;;;;5033684;28;19955;-55
2022/01/22 08:52:55;;;;;;;;;;;;;;;;;;5033811;28;20295;-56
2022/01/22 08:55:21;;;;;;;;;;;;;;;;;;5033214;28;20377;-58
2022/01/22 08:57:49;;;;;;;;;;;;;;;;;;5032684;28;19916;-57
2022/01/22 09:00:15;;;;;;;;;;;;;;;;;;5033744;28;19909;-58
2022/01/22 09:02:43;;;;;;;;;;;;;;;;;;5032749;28;19915;-59
2022/01/22 09:05:09;;;;;;;;;;;;;;;;;;5032125;28;19909;-58
2022/01/22 09:07:35;;;;;;;;;;;;;;;;;;5033564;28;20008;-57
2022/01/22 09:10:01;;;;;;;;;;;;;;;;;;5033635;28;19913;-56
2022/01/22 09:12:27;;;;;;;;;;;;;;;;;;5032430;28;19959;-59
2022/01/22 09:14:53;;;;;;;;;;;;;;;;;;5031691;28;20395;-59
2022/01/22 09:17:18;;;;;;;;;;;;;;;;;;5033653;28;19909;-54
2022/01/22 09:19:47;;;;;;;;;;;;;;;;;;5033573;28;19909;-60
2022/01/22 09:22:13;;;;;;;;;;;;;;;;;;5032016;28;19965;-60
2022/01/22 09:24:40;;;;;;;;;;;;;;;;;;5032853;28;19979;-56
2022/01/22 09:27:06;;;;;;;;;;;;;;;;;;5033019;28;20373;-59
2022/01/22 09:29:32;;;;;;;;;;;;;;;;;;5031600;28;19913;-55
2022/01/22 09:31:58;;;;;;;;;;;;;;;;;;5033168;28;19942;-55
2022/01/22 09:34:24;;;;;;;;;;;;;;;;;;5031465;28;19932;-58
2022/01/22 09:36:50;;;;;;;;;;;;;;;;;;5031661;28;19910;-59
2022/01/22 09:39:16;;;;;;;;;;;;;;;;;;5033142;28;19906;-59
2022/01/22 09:41:41;;;;;;;;;;;;;;;;;;5032804;28;19991;-57
2022/01/22 09:44:08;;;;;;;;;;;;;;;;;;5032702;28;20254;-58
2022/01/22 09:46:34;;;;;;;;;;;;;;;;;;5031951;28;20341;-59
2022/01/22 09:49:00;;;;;;;;;;;;;;;;;;5033063;28;19920;-55
2022/01/22 09:51:26;;;;;;;;;;;;;;;;;;5031688;28;19951;-59
2022/01/22 09:53:52;;;;;;;;;;;;;;;;;;5031414;28;19932;-62
2022/01/22 09:56:18;;;;;;;;;;;;;;;;;;5031710;28;19982;-61
2022/01/22 09:58:44;;;;;;;;;;;;;;;;;;5033147;28;20351;-62
2022/01/22 10:01:09;;;;;;;;;;;;;;;;;;5031497;28;19909;-63
2022/01/22 10:03:35;;;;;;;;;;;;;;;;;;5032817;28;19913;-60
2022/01/22 10:06:01;;;;;;;;;;;;;;;;;;5032680;28;19909;-61
2022/01/22 10:08:35;;;;;;;;;;;;;;;;;;5031541;28;19978;-60
2022/01/22 10:11:01;;;;;;;;;;;;;;;;;;5032084;28;19909;-61
2022/01/22 10:13:27;;;;;;;;;;;;;;;;;;5031116;28;19916;-61
2022/01/22 10:15:53;;;;;;;;;;;;;;;;;;5031074;28;19920;-61
2022/01/22 10:18:22;;;;;;;;;;;;;;;;;;5032774;28;19963;-63
2022/01/22 10:20:48;;;;;;;;;;;;;;;;;;5031241;28;20369;-61
2022/01/22 10:23:19;;;;;;;;;;;;;;;;;;5032853;28;20012;-63
2022/01/22 10:25:50;;;;;;;;;;;;;;;;;;5023336;28;19910;-61
2022/01/22 10:28:24;;;;;;;;;;;;;;;;;;5012886;28;19913;-61
2022/01/22 10:30:52;;;;;;;;;;;;;;;;;;5011436;28;19909;-59
2022/01/22 10:33:32;;;;;;;;;;;;;;;;;;5012991;28;19910;-61
2022/01/22 10:35:58;;;;;;;;;;;;;;;;;;5011166;28;19910;-61
2022/01/22 10:38:24;;;;;;;;;;;;;;;;;;5012401;28;20284;-61
2022/01/22 10:40:50;;;;;;;;;;;;;;;;;;5011517;28;19910;-62
2022/01/22 10:43:16;;;;;;;;;;;;;;;;;;5011474;28;19917;-62
2022/01/22 10:45:43;;;;;;;;;;;;;;;;;;5012201;28;19910;-61
2022/01/22 10:48:08;;;;;;;;;;;;;;;;;;5012237;28;19910;-61
2022/01/22 10:50:34;;;;;;;;;;;;;;;;;;5012584;28;19916;-61
2022/01/22 10:53:00;;;;;;;;;;;;;;;;;;5012412;28;20367;-62
2022/01/22 10:55:26;;;;;;;;;;;;;;;;;;5015500;28;19910;-62
2022/01/22 10:57:52;;;;;;;;;;;;;;;;;;5024684;28;20296;-62
2022/01/22 11:00:21;;;;;;;;;;;;;;;;;;5036005;28;19913;-60
2022/01/22 11:02:47;;;;;;;;;;;;;;;;;;5036219;28;20329;-59
2022/01/22 11:05:13;;;;;;;;;;;;;;;;;;5035322;28;19951;-62
2022/01/22 11:07:39;;;;;;;;;;;;;;;;;;5036177;28;19916;-63
2022/01/22 11:10:04;;;;;;;;;;;;;;;;;;5035793;28;19967;-66
2022/01/22 11:12:30;;;;;;;;;;;;;;;;;;5035677;28;20351;-61
2022/01/22 11:14:56;;;;;;;;;;;;;;;;;;5035619;28;19916;-60
2022/01/22 11:17:24;;;;;;;;;;;;;;;;;;5036171;28;20000;-60
2022/01/22 11:19:50;;;;;;;;;;;;;;;;;;5036069;28;19962;-60
2022/01/22 11:22:16;;;;;;;;;;;;;;;;;;5036804;28;19913;-60
2022/01/22 11:24:42;;;;;;;;;;;;;;;;;;5036168;28;19962;-63
2022/01/22 11:27:07;;;;;;;;;;;;;;;;;;5034695;28;19916;-62
2022/01/22 11:29:36;;;;;;;;;;;5.90;99.90;;;;;;5034577;28;20407;-62
2022/01/22 11:32:02;;;;;;;;;;;;;;;;;;5036201;28;20011;-59
2022/01/22 11:34:31;;;;;;;;;;;;;;;;;;5035951;28;19917;-60
2022/01/22 11:36:56;;;;;;;;;;;;;;;;;;5036049;28;19931;-62
2022/01/22 11:39:22;;;;;;;;;;;;;;;;;;5035595;28;20440;-62
2022/01/22 11:41:48;;;;;;;;;;;;;;;;;;5034432;28;19909;-62
2022/01/22 11:44:17;;;;;;;;;;;;;;;;;;5035761;28;20407;-63
2022/01/22 11:46:46;;;;;;;;;;;;;;;;;;5035897;28;19913;-60
2022/01/22 11:49:12;;;;;;;;;;;;;;;;;;5035616;28;20327;-60
2022/01/22 11:51:37;;;;;;;;;;;;;;;;;;5034207;28;19913;-60
2022/01/22 11:54:03;;;;;;;;;;;;;;;;;;4675513;28;10000431;-63
2022/01/22 11:56:29;;;;;;;;;;;;;;;;;;5029938;28;20372;-63
2022/01/22 11:58:55;;;;;;;;;;;;;;;;;;5012831;28;19920;-62
2022/01/22 12:01:21;;;;;;;;;;;;;;;;;;5019314;28;19960;-63
2022/01/22 12:03:49;;;;;;;;;;;;;;;;;;5032434;28;19963;-62
2022/01/22 12:06:14;;;;;;;;;;;;;;;;;;5031917;28;19989;-61
2022/01/22 12:08:40;;;;;;;;;;;;;;;;;;5016556;28;20012;-64
2022/01/22 12:14:28;;;;;;;;;;;;;;;;;;5022972;28;19941;-63
2022/01/22 12:16:41;;;;;;;;;;;;;;;;;;5032158;28;19955;-61
2022/01/22 12:19:10;;;;;;;;;;;;;;;;;;5031170;28;19932;-62
2022/01/22 12:21:36;;;;;;;;;;;;;;;;;;5030514;28;19932;-61
2022/01/22 12:24:02;;;;;;;;;;;;;;;;;;5031604;28;20039;-63
2022/01/22 12:26:28;;;;;;;;;;;;;;;;;;5029178;28;19925;-63
2022/01/22 12:28:54;;;;;;;;;;;;;;;;;;5011991;28;19924;-66
2022/01/22 12:31:20;;;;;;;;;;;;;;;;;;5012307;28;19913;-63
2022/01/22 12:33:46;;;;;;;;;;;;;;;;;;5010114;28;19988;-62
2022/01/22 12:36:17;;;;;;;;;;;;;;;;;;5011991;28;19913;-59
2022/01/22 12:38:49;;;;;;;;;;;;;;;;;;5012181;28;19909;-58
2022/01/22 12:43:59;;;;;;;;;;;;;;;;;;5012355;28;19999;-60
2022/01/22 12:46:25;;;;;;;;;;;;;;;;;;5022165;28;19936;-57
2022/01/22 12:48:51;;;;;;;;;;;;;;;;;;5020987;28;19922;-62
2022/01/22 12:51:18;;;;;;;;;;;;;;;;;;5021388;28;19913;-62
2022/01/22 12:53:44;;;;;;;;;;;;;;;;;;5023063;28;20470;-59
2022/01/22 12:56:35;;;;;;;;;;;;;;;;;;;;;
2022/01/22 12:58:39;;;;;;;;;;;;;;;;;;5022314;28;19913;-60
2022/01/22 13:01:05;;;;;;;;;;;;;;;;;;5019740;28;19919;-62
2022/01/22 13:03:31;;;;;;;;;;;;;;;;;;5021183;28;19913;-58
2022/01/22 13:05:57;;;;;;;;;;;;;;;;;;5024698;28;19920;-61
2022/01/22 13:08:23;;;;;;;;;;;;;;;;;;5041930;22;19956;-61
2022/01/22 13:10:53;;;;;;;;;;;;;;;;;;5044257;28;19960;-64
2022/01/22 13:13:19;;;;;;;;;;;;;;;;;;5030113;28;19909;-64
2022/01/22 13:15:45;;;;;;;;;;;;;;;;;;5045818;28;19913;-64
2022/01/22 13:18:10;;;;;;;;;;;;;;;;;;5029892;28;19909;-65
2022/01/22 13:20:36;;;;;;;;;;;;;;;;;;5029698;28;19920;-64
2022/01/22 13:23:03;;;;;;;;;;;;;;;;;;5029075;28;20344;-66
2022/01/22 13:25:29;;;;;;;;;;;;;;;;;;5028522;28;19913;-65
2022/01/22 13:27:55;;;;;;;;;;;;;;;;;;5010074;28;20114;-66
2022/01/22 13:30:20;;;;;;;;;;;;;;;;;;5010692;28;19921;-66
2022/01/22 13:38:17;;;;;;;;;;;;;;;;;;5014050;28;20337;-65
2022/01/22 13:41:06;;;;;;;;;;;;;;;;;;4647448;28;10000458;-64
2022/01/22 13:48:54;;;;;;;;;;;;;;;;;;5010774;28;19960;-64
2022/01/22 13:51:20;;;;;;;;;;;;;;;;;;5012531;28;20354;-64
2022/01/22 13:53:46;;;;;;;;;;;;;;;;;;5012911;28;19910;-64
2022/01/22 13:56:13;;;;;;;;;;;;;;;;;;5011009;28;20031;-64
2022/01/22 13:58:39;;;;;;;;;;;;;;;;;;5013063;28;19910;-64
2022/01/22 14:01:06;;;;;;;;;;;;;;;;;;5012606;28;19910;-62
2022/01/22 14:03:39;;;;;;;;;;;;;;;;;;5012308;28;19910;-64
2022/01/22 14:06:05;;;;;;;;;;;;;;;;;;5013380;28;20263;-64
2022/01/22 14:08:34;;;;;;;;;;;;;;;;;;5011603;28;19972;-64
2022/01/22 14:11:00;;;;;;;;;;;;;;;;;;5012902;28;20399;-62
2022/01/22 14:13:26;;;;;;;;;;;;;;;;;;5013105;28;19913;-64
2022/01/22 14:15:52;;;;;;;;;;;;;;;;;;5012338;28;19910;-63
2022/01/22 14:18:22;;;;;;;;;;;;;;;;;;5011513;28;19909;-64
2022/01/22 14:20:48;;;;;;;;;;;;;;;;;;5011563;28;19909;-63
2022/01/22 14:23:14;;;;;;;;;;;;;;;;;;5013174;28;20012;-64
2022/01/22 14:25:40;;;;;;;;;;;;;;;;;;5012731;28;19914;-66
2022/01/22 14:28:06;;;;;;;;;;;;;;;;;;5012740;28;19910;-65
2022/01/22 14:30:31;;;;;;;;;;;;;;;;;;5016724;28;19996;-64
2022/01/22 14:32:57;;;;;;;;;;;;;;;;;;5016817;28;19920;-65
2022/01/22 14:35:23;;;;;;;;;;;;;;;;;;5016118;28;19909;-65
2022/01/22 14:37:53;;;;;;;;;;;;;;;;;;5015998;28;20011;-64
2022/01/22 14:45:48;;;;;;;;;;;;;;;;;;5015042;28;20436;-63
2022/01/22 14:48:14;;;;;;;;;;;;;;;;;;5016492;28;19910;-64
2022/01/22 14:50:39;;;;;;;;;;;;;;;;;;5015051;28;19909;-63
2022/01/22 14:53:07;;;;;;;;;;;;;;;;;;5014882;28;20000;-64
2022/01/22 14:55:34;;;;;;;;;;;;;;;;;;4669007;28;10000030;-63
2022/01/22 14:57:59;;;;;;;;;;;;;;;;;;5013193;28;19921;-65
2022/01/22 15:00:25;;;;;;;;;;;;;;;;;;5013072;28;19913;-64
2022/01/22 15:02:51;;;;;;;;;;;;;;;;;;5012962;28;20416;-65
2022/01/22 15:05:17;;;;;;;;;;;;;;;;;;5013009;28;19914;-65
2022/01/22 15:07:43;;;;;;;;;;;;;;;;;;5011610;28;19924;-64
2022/01/22 15:10:09;;;;;;;;;;;;;;;;;;5012789;28;19920;-65
2022/01/22 15:12:35;;;;;;;;;;;;;;;;;;5015388;28;19914;-68
2022/01/22 15:15:00;;;;;;;;;;;;;;;;;;5014799;28;20293;-60
2022/01/22 15:17:31;;;;;;;;;;;;;;;;;;5013325;28;19949;-62
2022/01/22 15:19:57;;;;;;;;;;;;;;;;;;5013139;28;20335;-62
2022/01/22 15:22:23;;;;;;;;;;;;;;;;;;5011247;28;19917;-62
2022/01/22 15:24:51;;;;;;;;;;;;;;;;;;5014672;28;20316;-63
2022/01/22 15:27:17;;;;;;;;;;;;;;;;;;5014054;28;19910;-63
2022/01/22 15:35:04;;;;;;;;;;;;;;;;;;5015358;28;20388;-60
2022/01/22 15:37:29;;;;;;;;;;;;;;;;;;5013743;28;19917;-63
2022/01/22 15:39:55;;;;;;;;;;;;;;;;;;5013120;28;19953;-65
2022/01/22 15:42:21;;;;;;;;;;;;;;;;;;5015079;28;19910;-64
2022/01/22 15:44:47;;;;;;;;;;;;;;;;;;5014791;28;20377;-65
2022/01/22 15:47:13;;;;;;;;;;;;;;;;;;5013931;28;19960;-64
2022/01/22 15:49:41;;;;;;;;;;;;;;;;;;5013693;28;19921;-63
2022/01/22 15:52:07;;;;;;;;;;;;;;;;;;5014999;28;19917;-65
2022/01/22 15:54:33;;;;;;;;;;;;;;;;;;5014937;28;20387;-63
2022/01/22 15:56:59;;;;;;;;;;;;;;;;;;5015100;28;19910;-65
2022/01/22 15:59:25;;;;;;;;;;;;;;;;;;5013395;28;20064;-64
2022/01/22 16:01:51;;;;;;;;;;;;;;;;;;4667782;28;9999593;-64
2022/01/22 16:04:17;;;;;;;;;;;;;;;;;;5012035;28;20381;-64
2022/01/22 16:09:19;;;;;;;;;;;;;;;;;;5012089;28;19968;-65
2022/01/22 16:11:44;;;;;;;;;;;;;;;;;;5012035;28;19967;-64
2022/01/22 16:14:10;;;;;;;;;;;;;;;;;;5011719;28;20328;-65
2022/01/22 16:16:37;;;;;;;;;;;;;;;;;;5012383;28;20019;-64
2022/01/22 16:19:03;;;;;;;;;;;;;;;;;;5011181;28;19921;-64
2022/01/22 16:21:29;;;;;;;;;;;;;;;;;;5012929;28;19914;-61
2022/01/22 16:23:54;;;;;;;;;;;;;;;;;;5012945;28;20285;-64
2022/01/22 16:26:21;;;;;;;;;;;;;;;;;;5012647;28;19914;-64
2022/01/22 16:28:46;;;;;;;;;;;;;;;;;;5011797;28;19921;-60
2022/01/22 16:31:12;;;;;;;;;;;;;;;;;;5012826;28;19909;-65
2022/01/22 16:33:38;;;;;;;;;;;;;;;;;;5012216;28;19944;-65
2022/01/22 16:36:04;;;;;;;;;;;;;;;;;;5011724;28;20365;-64
2022/01/22 16:38:30;;;;;;;;;;;;;;;;;;5010020;28;19914;-63
2022/01/22 16:40:56;;;;;;;;;;;;;;;;;;5011077;28;19945;-64
2022/01/22 16:43:29;;;;;;;;;;;;;;;;;;5010845;28;19914;-64
2022/01/22 16:57:27;;;;;;;;;;;;;;;;;;5011386;28;20410;-65
2022/01/22 16:59:43;;;;;;;;;;;;;;;;;;5007411;28;19920;-65
2022/01/22 17:02:09;;;;;;;;;;;;;;;;;;5009316;28;19961;-65
2022/01/22 17:04:40;;;;;;;;;;;;;;;;;;5010357;28;19964;-65
2022/01/22 17:07:09;;;;;;;;;;;;;;;;;;5011367;28;19962;-64
2022/01/22 17:14:46;;;;;;;;;;;;;;;;;;5011339;28;19920;-66
2022/01/22 17:17:12;;;;;;;;;;;;;;;;;;5010986;28;19914;-65
2022/01/22 17:19:39;;;;;;;;;;;;;;;;;;5011260;28;19917;-65
2022/01/22 17:22:05;;;;;;;;;;;;;;;;;;5010964;28;20262;-65
2022/01/22 17:24:31;;;;;;;;;;;;;;;;;;5010583;28;19909;-65
2022/01/22 17:26:57;;;;;;;;;;;;;;;;;;5010329;28;20006;-66
2022/01/22 17:29:23;;;;;;;;;;;;;;;;;;5010864;28;19923;-58
2022/01/22 17:31:49;;;;;;;;;;;;;;;;;;5010759;28;19913;-64
2022/01/22 17:34:15;;;;;;;;;;;;;;;;;;5009094;28;19953;-65
2022/01/22 17:36:41;;;;;;;;;;;;;;;;;;5010646;28;20640;-65
2022/01/22 17:39:10;;;;;;;;;;;;;;;;;;5009507;28;19917;-65
2022/01/22 17:41:37;;;;;;;;;;;;;;;;;;5009389;28;19917;-64
2022/01/22 17:44:08;;;;;;;;;;;;;;;;;;5010347;28;19964;-63
2022/01/22 17:46:34;;;;;;;;;;;;;;;;;;5008769;28;20016;-65
2022/01/22 17:49:00;;;;;;;;;;;;;;;;;;5010319;28;20011;-65
2022/01/22 17:51:25;;;;;;;;;;;;;;;;;;5010608;28;20387;-64
2022/01/22 17:53:51;;;;;;;;;;;;;;;;;;5009805;28;19978;-64
2022/01/22 17:56:17;;;;;;;;;;;;;;;;;;5008639;28;19917;-65
2022/01/22 17:58:43;;;;;;;;;;;;;;;;;;5008943;28;20399;-65
2022/01/22 18:01:09;;;;;;;;;;;;;;;;;;5009930;28;19928;-65
2022/01/22 18:03:38;;;;;;;;;;;;;;;;;;5008071;28;19921;-65
2022/01/22 18:06:04;;;;;;;;;;;;;;;;;;5010083;28;19909;-64
2022/01/22 18:08:30;;;;;;;;;;;;;;;;;;5009730;28;19945;-64
2022/01/22 18:10:59;;;;;;;;;;;;;;;;;;5025263;28;20301;-65
2022/01/22 18:13:26;;;;;;;;;;;;;;;;;;5024974;28;20297;-53
2022/01/22 18:15:52;;;;;;;;;;;;;;;;;;5009761;28;19914;-53
2022/01/22 18:18:18;;;;;;;;;;;;;;;;;;5025138;28;19971;-60
2022/01/22 18:20:43;;;;;;;;;;;;;;;;;;5010462;28;19917;-60
2022/01/22 18:23:09;;;;;;;;;;;;;;;;;;5010072;28;19932;-57
2022/01/22 18:25:35;;;;;;;;;;;;;;;;;;5010292;28;20016;-52
2022/01/22 18:28:01;;;;;;;;;;;;;;;;;;5009734;28;19955;-57
2022/01/22 18:30:27;;;;;;;;;;;;;;;;;;5009426;28;19924;-55
2022/01/22 18:32:53;;;;;;;;;;;;;;;;;;5010153;28;19916;-63
2022/01/22 18:35:20;;;;;;;;;;;;;;;;;;5009525;28;19980;-62
2022/01/22 18:37:46;;;;;;;;;;;;;;;;;;5008209;28;19960;-63
2022/01/22 18:40:12;;;;;;;;;;;;;;;;;;5009613;28;19910;-64
2022/01/22 18:42:40;;;;;;;;;;;;;;;;;;5007964;28;19923;-63
2022/01/22 18:45:06;;;;;;;;;;;;;;;;;;5008054;28;20377;-62
2022/01/22 18:47:32;;;;;;;;;;;;;;;;;;5008109;28;20001;-64
2022/01/22 18:49:58;;;;;;;;;;;;;;;;;;5008341;28;19936;-63
2022/01/22 18:52:25;;;;;;;;;;;;;;;;;;5012327;28;19913;-60
2022/01/22 18:54:51;;;;;;;;;;;;;;;;;;5010930;28;19909;-60
2022/01/22 18:57:17;;;;;;;;;;;;;;;;;;5010902;28;20583;-58
2022/01/22 18:59:43;;;;;;;;;;;;;;;;;;4314061;28;10000038;-63
2022/01/22 19:02:09;;;;;;;;;;;;;;;;;;5004777;28;20376;-62